Meteo Giornale » Osservazioni meteo Libia » Mitiga
ore: 07:00 - Osservazioni Meteo Mitiga
Lat. 32° 54' N Lon. 13° 17' E Alt. 11 metri s.l.m.
30 °C
Sereno
Temp. 24 Ore
30 °C
37 °C
Sud/Sud-Est
14.8 Km/h
Dew point 24 °C
Umidità 70 %
Visibilità 7 Km
Il sole sorge alle ore 06:41
Il sole tramonta alle ore 19:32
| Data e Ora | Cielo e Fenomeni | T °C | DP °C | Um. % | Pres. hPa | Vis. km | Vento km/h | |
|---|---|---|---|---|---|---|---|---|
| Oggi h: 07:00 | Sereno | 30 | 24 | 70 | 1015 | 7 | S/SE 14.8 | |
| Oggi h: 06:00 | Sereno | 31 | 23 | 62 | 1015 | 7 | N 5.5 | |
| Oggi h: 05:00 | Sereno | 31 | 23 | 62 | 1015 | 7 | N 9.3 | |
| Oggi h: 03:00 | Sereno | 32 | 19 | 46 | 1016 | 7 | N 9.3 | |
| Oggi h: 02:00 | Sereno | 31 | 14 | 35 | 1015 | 7 | N 0 | |
| Oggi h: 01:00 | Sereno | 33 | 13 | 29 | 1015 | 7 | N 0 | |
| Oggi h: 00:00 | Sereno | 31 | 17 | 43 | 1016 | 7 | N 0 | |
| Ieri h: 22:00 | Sereno | 32 | 18 | 43 | 1016 | 7 | N 0 | |
| Ieri h: 21:00 | Sereno | 32 | 19 | 46 | 1015 | 7 | SE 7.4 | |
| Ieri h: 20:00 | Sereno | 34 | 22 | 49 | 1015 | 7 | E/SE 9.3 | |
| Ieri h: 19:00 | Sereno | 33 | 26 | 66 | 1015 | 7 | E 18.5 | |
| Ieri h: 18:00 | Sereno | 33 | 23 | 55 | 1015 | 7 | E/NE 18.5 | |
| Ieri h: 17:00 | Sereno | 36 | 27 | 60 | 1015 | 7 | E 22.2 | |
| Ieri h: 16:00 | Sereno | 35 | 27 | 63 | 1016 | 7 | E/NE 18.5 | |
| Ieri h: 15:00 | Sereno | 37 | 23 | 44 | 1016 | 7 | N 22.2 | |
| Ieri h: 14:00 | Sereno | 37 | 22 | 42 | 1016 | 7 | N 22.2 | |
| Ieri h: 13:00 | Sereno | 37 | 27 | 56 | 1016 | 7 | N 18.5 | |
| Ieri h: 12:00 | Sereno | 34 | 21 | 46 | 1016 | 7 | N/NE 9.3 | |
| Ieri h: 10:00 | Sereno | 35 | 22 | 47 | 1016 | 7 | E 18.5 | |
| Ieri h: 09:00 | Sereno | 33 | 26 | 66 | 1016 | 6 | E/SE 9.3 | |
| Ieri h: 08:00 | Sereno | 31 | 20 | 52 | 1015 | 6 | S 9.3 | |



